Time;durP1;ratioP1;P1;durP2;ratioP2;P2;SDS_P1;SDS_P2;PMS_P1;PMS_P2;Temp;Humidity;BMP_temperature;BMP_pressure;BME280_temperature;BME280_humidity;BME280_pressure;Samples;Min_cycle;Max_cycle;Signal;HPM_P1;HPM_P2
2021/12/14 00:01:38;;;;;;;38.45;15.20;;;;;;;4.05;96.62;96792.47;4814001;29;20043;-50
2021/12/14 00:04:09;;;;;;;33.80;14.25;;;;;;;3.65;97.88;96794.09;4818608;29;20401;-48
2021/12/14 00:06:38;;;;;;;36.67;14.57;;;;;;;3.51;99.23;96791.13;4817028;29;20137;-46
2021/12/14 00:09:09;;;;;;;37.92;16.27;;;;;;;3.38;99.99;96789.78;4817394;29;20085;-52
2021/12/14 00:16:50;;;;;;;30.13;14.30;;;;;;;3.12;100.00;96780.06;4815678;29;20057;-45
2021/12/14 00:19:18;;;;;;;31.38;13.25;;;;;;;3.07;100.00;96782.75;4815876;29;20073;-45
2021/12/14 00:21:52;;;;;;;33.50;15.00;;;;;;;2.95;100.00;96775.72;4818374;29;20121;-49
2021/12/14 00:24:21;;;;;;;36.50;14.00;;;;;;;2.95;100.00;96773.06;4811441;29;20054;-53
2021/12/14 00:26:54;;;;;;;33.33;13.68;;;;;;;3.16;100.00;96773.16;4814792;29;20046;-51
2021/12/14 00:29:26;;;;;;;41.15;16.38;;;;;;;3.47;99.40;96782.81;4815771;29;20077;-52
2021/12/14 00:31:56;;;;;;;37.42;14.35;;;;;;;3.00;100.00;96783.00;4818917;29;20486;-51
2021/12/14 00:34:35;;;;;;;40.63;14.15;;;;;;;3.14;100.00;96781.41;4815338;29;20046;-55
2021/12/14 00:37:09;;;;;;;39.65;14.63;;;;;;;3.68;98.77;96789.00;4814625;29;20082;-56
2021/12/14 00:39:38;;;;;;;42.50;14.32;;;;;;;3.50;98.79;96798.34;4815690;29;20050;-56
2021/12/14 00:42:06;;;;;;;39.50;14.93;;;;;;;3.07;100.00;96782.75;4816621;29;20125;-51
2021/12/14 00:44:34;;;;;;;38.85;15.27;;;;;;;3.55;99.53;96791.41;4815404;29;20049;-50
2021/12/14 00:47:03;;;;;;;40.05;13.80;;;;;;;3.83;98.74;96790.06;4815981;29;20081;-52
2021/12/14 00:49:31;;;;;;;38.05;14.90;;;;;;;3.82;97.58;96791.16;4820262;29;20046;-54
2021/12/14 00:51:59;;;;;;;47.78;17.27;;;;;;;3.53;98.77;96791.66;4821614;29;20038;-55
2021/12/14 00:54:26;;;;;;;42.25;15.15;;;;;;;3.18;100.00;96787.03;4819865;29;20138;-54
2021/12/14 00:56:54;;;;;;;41.33;14.55;;;;;;;3.04;100.00;96779.50;4825953;29;20050;-52
2021/12/14 00:59:22;;;;;;;41.50;12.85;;;;;;;2.93;100.00;96782.44;4820370;29;20428;-50
2021/12/14 01:01:56;;;;;;;38.50;13.48;;;;;;;2.99;100.00;96776.00;4832016;29;20049;-53
2021/12/14 01:04:31;;;;;;;43.85;13.57;;;;;;;2.87;100.00;96773.59;4819930;29;20096;-50
2021/12/14 01:07:00;;;;;;;31.85;12.23;;;;;;;2.98;100.00;96777.88;4821422;29;20096;-50
2021/12/14 01:09:32;;;;;;;32.78;11.73;;;;;;;2.88;100.00;96779.72;4833142;29;20043;-51
2021/12/14 01:12:07;;;;;;;31.65;12.63;;;;;;;2.71;100.00;96782.59;4820215;29;20408;-51
2021/12/14 01:18:02;;;;;;;35.65;11.73;;;;;;;2.69;100.00;96776.72;4819163;29;20111;-52
2021/12/14 01:20:38;;;;;;;42.28;11.68;;;;;;;2.55;100.00;96781.72;4822631;29;20057;-50
2021/12/14 01:23:15;;;;;;;31.00;11.52;;;;;;;2.48;100.00;96784.63;4816875;29;20086;-53
2021/12/14 01:25:47;;;;;;;31.70;10.50;;;;;;;2.66;100.00;96787.91;4813926;29;20075;-51
2021/12/14 01:28:21;;;;;;;30.63;9.88;;;;;;;2.58;100.00;96792.69;4819497;29;20065;-51
2021/12/14 01:31:06;;;;;;;27.40;9.80;;;;;;;2.02;100.00;96788.91;4822054;29;20089;-53
2021/12/14 01:33:34;;;;;;;23.98;9.68;;;;;;;2.03;100.00;96795.84;4831021;29;20042;-52
2021/12/14 01:36:09;;;;;;;21.73;9.07;;;;;;;2.61;100.00;96795.94;4818233;29;20085;-49
2021/12/14 01:38:47;;;;;;;27.20;10.25;;;;;;;2.90;100.00;96804.34;4819263;29;20049;-52
2021/12/14 01:41:16;;;;;;;22.67;9.77;;;;;;;2.16;100.00;96807.94;4819074;29;20074;-47
2021/12/14 01:43:56;;;;;;;24.05;9.13;;;;;;;1.96;100.00;96814.75;4820745;29;20046;-50
2021/12/14 01:46:44;;;;;;;24.52;9.35;;;;;;;2.70;100.00;96813.06;4816335;29;20149;-52
2021/12/14 01:49:30;;;;;;;24.67;9.00;;;;;;;2.73;100.00;96807.19;4816904;29;20503;-52
2021/12/14 01:52:22;;;;;;;26.65;10.02;;;;;;;2.62;100.00;96805.53;4816969;29;20043;-48
2021/12/14 01:54:53;;;;;;;26.83;10.07;;;;;;;2.83;100.00;96806.44;4799808;29;20488;-51
2021/12/14 01:57:23;;;;;;;23.35;9.88;;;;;;;2.75;100.00;96791.72;4821174;29;20524;-47
2021/12/14 01:59:55;;;;;;;26.20;9.88;;;;;;;2.58;100.00;96806.06;4821186;29;20404;-48
2021/12/14 02:02:31;;;;;;;23.20;9.27;;;;;;;2.74;100.00;96804.28;4835091;29;20044;-48
2021/12/14 02:05:05;;;;;;;24.15;8.00;;;;;;;2.29;100.00;96799.47;4814335;29;20458;-52
2021/12/14 02:07:35;;;;;;;18.02;8.48;;;;;;;2.30;100.00;96793.06;4834393;29;20051;-50
2021/12/14 02:10:16;;;;;;;18.33;8.10;;;;;;;2.39;100.00;96806.75;4818190;29;20126;-50
2021/12/14 02:12:44;;;;;;;17.92;7.85;;;;;;;2.56;100.00;96805.50;4818409;29;20046;-50
2021/12/14 02:15:18;;;;;;;17.42;8.20;;;;;;;2.74;98.89;96817.63;4815470;29;20085;-51
2021/12/14 02:17:50;;;;;;;17.40;7.22;;;;;;;2.30;100.00;96817.09;4820992;29;20050;-50
2021/12/14 02:20:22;;;;;;;16.70;7.70;;;;;;;2.24;100.00;96810.94;4822834;29;20071;-49
2021/12/14 02:22:50;;;;;;;12.25;4.82;;;;;;;1.79;100.00;96822.88;4823058;29;20091;-49
2021/12/14 02:25:17;;;;;;;12.02;5.32;;;;;;;1.59;100.00;96812.84;4820703;29;20042;-51
2021/12/14 02:27:47;;;;;;;8.85;4.63;;;;;;;1.57;100.00;96808.81;4824417;29;20076;-51
2021/12/14 02:30:19;;;;;;;10.35;4.85;;;;;;;1.48;100.00;96805.78;4825162;29;20084;-48
2021/12/14 02:32:47;;;;;;;12.02;4.97;;;;;;;1.44;100.00;96806.56;4819866;29;20134;-48
2021/12/14 02:35:18;;;;;;;12.48;5.63;;;;;;;1.61;100.00;96802.72;4821483;29;20079;-47
2021/12/14 02:37:50;;;;;;;8.52;4.28;;;;;;;1.47;100.00;96798.06;4825563;29;20501;-50
2021/12/14 02:40:53;;;;;;;8.63;4.28;;;;;;;1.46;100.00;96799.09;4821070;29;20051;-49
2021/12/14 02:43:49;;;;;;;8.95;4.82;;;;;;;1.37;100.00;96802.22;4820539;29;20039;-54
2021/12/14 02:46:24;;;;;;;8.82;3.95;;;;;;;1.38;100.00;96800.38;4812922;29;20125;-50
2021/12/14 02:48:58;;;;;;;9.38;4.95;;;;;;;1.26;100.00;96789.84;4820996;29;20074;-52
2021/12/14 02:51:33;;;;;;;13.95;5.40;;;;;;;1.19;100.00;96788.44;4818607;29;20134;-49
2021/12/14 02:54:07;;;;;;;9.88;4.40;;;;;;;1.22;100.00;96782.59;4816129;29;20046;-47
2021/12/14 02:56:36;;;;;;;11.30;5.72;;;;;;;1.22;100.00;96791.41;4814968;29;20050;-54
2021/12/14 02:59:09;;;;;;;10.43;5.15;;;;;;;1.17;100.00;96786.84;4821181;29;20042;-51
2021/12/14 03:01:38;;;;;;;10.63;5.47;;;;;;;1.29;100.00;96796.53;4822107;29;20050;-48
2021/12/14 03:04:08;;;;;;;13.35;5.22;;;;;;;1.38;100.00;96784.38;4819939;29;20049;-48
2021/12/14 03:06:48;;;;;;;17.13;4.70;;;;;;;1.02;100.00;96786.66;4818449;29;20054;-49
2021/12/14 03:09:35;;;;;;;9.57;4.88;;;;;;;1.27;100.00;96780.81;4826160;29;20121;-47
2021/12/14 03:12:18;;;;;;;11.48;5.38;;;;;;;1.88;99.38;96777.84;4813051;29;20070;-51
2021/12/14 03:14:52;;;;;;;10.20;4.68;;;;;;;1.38;100.00;96779.84;4816317;29;20533;-48
2021/12/14 03:17:20;;;;;;;9.15;4.28;;;;;;;1.26;100.00;96779.19;4817627;29;20133;-48
2021/12/14 03:19:56;;;;;;;8.68;3.83;;;;;;;0.78;100.00;96779.97;4813565;29;20576;-51
2021/12/14 03:23:05;;;;;;;8.73;4.03;;;;;;;0.56;100.00;96785.34;4820465;29;20035;-48
2021/12/14 03:25:35;;;;;;;10.05;4.35;;;;;;;0.81;100.00;96788.28;4814859;29;20492;-49
2021/12/14 03:28:02;;;;;;;9.80;3.78;;;;;;;0.90;100.00;96791.31;4818487;29;20439;-50
2021/12/14 03:30:33;;;;;;;8.15;3.95;;;;;;;0.97;100.00;96794.59;4816967;29;20058;-54
2021/12/14 03:33:12;;;;;;;21.42;4.22;;;;;;;1.07;100.00;96791.25;4815210;29;20574;-54
2021/12/14 03:35:52;;;;;;;16.65;4.68;;;;;;;0.99;100.00;96787.16;4827970;29;21023;-46
2021/12/14 03:38:24;;;;;;;9.90;4.38;;;;;;;1.26;100.00;96786.38;4830790;29;20416;-49
2021/12/14 03:41:15;;;;;;;11.93;4.80;;;;;;;1.19;100.00;96778.56;4820496;29;20270;-53
2021/12/14 03:43:54;;;;;;;14.20;4.53;;;;;;;1.38;100.00;96781.69;4820252;29;20082;-50
2021/12/14 03:46:33;;;;;;;11.68;4.53;;;;;;;1.37;100.00;96783.56;4811091;29;20050;-48
2021/12/14 03:49:03;;;;;;;11.85;4.20;;;;;;;1.09;100.00;96781.94;4819416;29;20066;-49
2021/12/14 03:51:30;;;;;;;15.65;4.28;;;;;;;1.19;100.00;96785.78;4820755;29;20046;-51
2021/12/14 03:53:58;;;;;;;9.15;4.10;;;;;;;1.11;100.00;96784.38;4813436;29;20056;-47
2021/12/14 03:56:29;;;;;;;11.90;3.95;;;;;;;0.72;100.00;96789.00;4819860;29;20054;-49
2021/12/14 03:58:57;;;;;;;24.17;4.60;;;;;;;1.06;100.00;96790.44;4831667;29;20502;-49
2021/12/14 04:01:28;;;;;;;17.67;4.93;;;;;;;1.04;100.00;96795.22;4813659;29;20042;-50
2021/12/14 04:04:16;;;;;;;15.13;3.80;;;;;;;0.84;100.00;96794.97;4815943;29;20083;-47
2021/12/14 04:06:46;;;;;;;53.05;6.00;;;;;;;0.96;100.00;96777.00;4817799;29;20497;-48
2021/12/14 04:09:16;;;;;;;17.58;4.55;;;;;;;0.97;100.00;96783.94;4813816;29;20133;-47
2021/12/14 04:11:44;;;;;;;16.58;4.53;;;;;;;1.26;100.00;96787.16;4819953;29;20506;-48
2021/12/14 04:14:12;;;;;;;17.92;4.80;;;;;;;1.33;100.00;96787.81;4820120;29;20492;-48
2021/12/14 04:16:49;;;;;;;23.92;5.07;;;;;;;1.53;100.00;96784.50;4817693;29;20498;-50
2021/12/14 04:19:22;;;;;;;20.08;4.97;;;;;;;1.29;100.00;96775.22;4804554;29;20062;-47
2021/12/14 04:21:55;;;;;;;20.85;5.20;;;;;;;1.36;100.00;96776.59;4820500;29;20492;-48
2021/12/14 04:24:26;;;;;;;20.52;5.00;;;;;;;0.96;100.00;96776.22;4812217;29;20585;-46
2021/12/14 04:26:56;;;;;;;21.20;4.88;;;;;;;1.25;100.00;96771.44;4823337;29;20061;-49
2021/12/14 04:29:23;;;;;;;32.03;5.60;;;;;;;1.42;100.00;96782.78;4823858;29;20070;-52
2021/12/14 04:31:51;;;;;;;28.27;6.15;;;;;;;1.38;100.00;96776.38;4823202;29;20049;-51
2021/12/14 04:34:20;;;;;;;21.65;4.95;;;;;;;1.86;100.00;96775.44;4821975;29;20098;-52
2021/12/14 04:36:51;;;;;;;38.40;6.28;;;;;;;1.83;100.00;96767.16;4822957;29;20046;-52
2021/12/14 04:53:15;;;;;;;22.27;5.20;;;;;;;1.75;100.00;96740.91;4832312;29;20096;-54
2021/12/14 04:55:45;;;;;;;16.65;4.70;;;;;;;1.73;100.00;96751.88;4820539;29;20050;-51
2021/12/14 04:58:13;;;;;;;28.85;4.72;;;;;;;1.79;100.00;96744.72;4819297;29;20057;-51
2021/12/14 05:00:46;;;;;;;18.83;5.07;;;;;;;1.91;100.00;96745.31;4823776;29;20062;-53
2021/12/14 05:03:43;;;;;;;24.10;5.20;;;;;;;1.55;100.00;96752.25;4814525;29;20156;-50
2021/12/14 05:06:17;;;;;;;21.95;4.82;;;;;;;1.45;100.00;96752.97;4806271;29;20103;-51
2021/12/14 05:09:22;;;;;;;18.17;5.45;;;;;;;1.33;100.00;96754.97;4821150;29;20091;-46
2021/12/14 05:12:01;;;;;;;18.45;5.60;;;;;;;1.28;100.00;96749.63;4829704;29;20047;-46
2021/12/14 05:14:37;;;;;;;14.77;4.82;;;;;;;1.29;100.00;96759.22;4820482;29;20047;-52
2021/12/14 05:17:12;;;;;;;13.90;5.53;;;;;;;1.25;100.00;96758.91;4815368;29;20046;-46
2021/12/14 05:19:43;;;;;;;20.33;5.15;;;;;;;1.37;100.00;96756.91;4836941;29;20509;-47
2021/12/14 05:22:19;;;;;;;14.25;5.00;;;;;;;1.85;100.00;96759.66;4825056;29;20058;-52
2021/12/14 05:25:12;;;;;;;11.10;4.70;;;;;;;2.12;100.00;96761.47;4820809;29;20121;-51
2021/12/14 05:27:44;;;;;;;23.42;5.43;;;;;;;1.69;100.00;96763.28;4816865;29;20129;-55
2021/12/14 05:30:16;;;;;;;28.23;6.53;;;;;;;1.23;100.00;96768.22;4822144;29;20046;-53
2021/12/14 05:33:17;;;;;;;16.80;4.70;;;;;;;1.36;100.00;96775.81;4819585;29;20050;-53
2021/12/14 05:35:47;;;;;;;18.90;5.53;;;;;;;1.62;100.00;96758.16;4819723;29;20057;-55
2021/12/14 05:38:28;;;;;;;16.65;4.82;;;;;;;1.44;100.00;96762.03;4817497;29;20043;-55
2021/12/14 05:43:05;;;;;;;15.77;4.90;;;;;;;1.48;100.00;96751.66;4853609;24;20041;-50
2021/12/14 05:44:04;;;;;;;22.98;5.65;;;;;;;1.43;100.00;96752.44;4847514;29;20153;-45
2021/12/14 05:46:49;;;;;;;22.27;5.18;;;;;;;1.43;100.00;96748.94;4847252;29;20042;-50
2021/12/14 05:49:30;;;;;;;20.45;5.63;;;;;;;1.23;100.00;96750.34;4844758;29;20078;-50
2021/12/14 05:52:05;;;;;;;52.17;7.32;;;;;;;1.15;100.00;96740.97;4833872;29;21615;-45
2021/12/14 05:54:33;;;;;;;16.63;5.45;;;;;;;1.68;100.00;96741.13;4830530;29;20050;-49
2021/12/14 05:57:04;;;;;;;45.38;6.97;;;;;;;1.44;100.00;96747.91;4832270;29;20046;-48
2021/12/14 05:59:34;;;;;;;31.80;5.90;;;;;;;1.15;100.00;96740.97;4836434;29;20061;-45
2021/12/14 06:02:06;;;;;;;21.52;6.25;;;;;;;1.29;100.00;96744.00;4836408;29;20468;-46
2021/12/14 06:04:55;;;;;;;23.40;6.32;;;;;;;1.33;100.00;96745.16;4850780;29;20102;-45
2021/12/14 06:07:25;;;;;;;28.02;6.72;;;;;;;1.39;100.00;96748.63;4837192;29;20094;-48
2021/12/14 06:09:54;;;;;;;26.17;5.93;;;;;;;1.59;100.00;96738.16;4838337;29;20041;-45
2021/12/14 06:12:38;;;;;;;13.45;5.75;;;;;;;1.75;100.00;96746.25;4831754;29;20072;-47
2021/12/14 06:15:14;;;;;;;19.08;6.63;;;;;;;1.71;100.00;96737.16;4832457;29;20231;-48
2021/12/14 06:17:41;;;;;;;20.42;6.85;;;;;;;1.27;100.00;96734.66;4818371;29;20047;-47
2021/12/14 06:20:34;;;;;;;16.48;5.93;;;;;;;1.47;100.00;96734.84;4837931;29;20444;-45
2021/12/14 06:23:06;;;;;;;22.05;5.53;;;;;;;1.37;100.00;96724.91;4820363;29;20045;-44
2021/12/14 06:26:00;;;;;;;22.70;6.22;;;;;;;1.46;100.00;96719.88;4833964;29;20061;-51
2021/12/14 06:28:28;;;;;;;38.70;6.30;;;;;;;1.32;100.00;96718.72;4831211;29;20119;-50
2021/12/14 06:30:59;;;;;;;17.58;5.78;;;;;;;1.69;100.00;96724.09;4834978;29;20461;-47
2021/12/14 06:33:32;;;;;;;44.22;6.78;;;;;;;1.56;100.00;96727.16;4834965;29;20220;-50
2021/12/14 06:36:01;;;;;;;;;;;;;;;1.46;100.00;96725.22;4831160;29;20555;-55
2021/12/14 06:38:32;;;;;;;18.60;6.70;;;;;;;1.68;100.00;96722.47;4836069;29;19928;-53
2021/12/14 06:41:03;;;;;;;25.63;6.40;;;;;;;1.75;100.00;96730.25;4839907;29;20050;-50
2021/12/14 06:43:36;;;;;;;12.63;6.05;;;;;;;1.97;99.63;96732.81;4832419;29;20109;-49
2021/12/14 06:46:15;;;;;;;28.23;5.40;;;;;;;0.56;100.00;96716.09;4833516;29;20057;-44
2021/12/14 06:48:50;;;;;;;34.83;5.97;;;;;;;0.39;100.00;96718.81;4850672;29;20115;-47
2021/12/14 06:51:23;;;;;;;18.70;5.43;;;;;;;0.36;100.00;96714.81;4836578;29;20045;-54
2021/12/14 06:54:04;;;;;;;39.78;5.25;;;;;;;0.29;100.00;96713.38;4829400;29;20373;-47
2021/12/14 06:56:53;;;;;;;41.65;4.85;;;;;;;0.11;100.00;96704.63;4837037;29;20058;-45
2021/12/14 06:59:49;;;;;;;21.52;4.60;;;;;;;0.59;100.00;96702.28;4836435;29;20046;-47
2021/12/14 07:02:24;;;;;;;24.67;5.43;;;;;;;0.10;100.00;96705.69;4836125;29;20496;-44
2021/12/14 07:05:00;;;;;;;39.00;5.22;;;;;;;0.02;100.00;96706.09;4831662;29;20045;-46
2021/12/14 07:07:32;;;;;;;24.02;4.47;;;;;;;0.31;100.00;96716.59;4834654;29;20046;-50
2021/12/14 07:10:06;;;;;;;11.50;4.90;;;;;;;0.28;100.00;96703.78;4839459;29;20049;-47
2021/12/14 07:12:36;;;;;;;20.40;5.25;;;;;;;0.95;100.00;96700.81;4834690;29;20129;-46
2021/12/14 07:15:24;;;;;;;15.77;4.68;;;;;;;0.43;100.00;96699.44;4837956;29;20432;-49
2021/12/14 07:18:04;;;;;;;20.17;4.70;;;;;;;0.21;100.00;96690.66;4831822;29;20046;-49
2021/12/14 07:20:31;;;;;;;9.48;4.35;;;;;;;0.28;100.00;96711.75;4831106;29;20128;-49
2021/12/14 07:23:02;;;;;;;17.02;5.15;;;;;;;0.28;100.00;96719.75;4837360;29;20064;-50
2021/12/14 07:25:38;;;;;;;10.20;5.45;;;;;;;0.60;100.00;96709.22;4834432;29;20416;-50
2021/12/14 07:28:11;;;;;;;13.82;4.80;;;;;;;0.69;100.00;96716.50;4830266;29;20129;-49
2021/12/14 07:30:49;;;;;;;14.48;5.32;;;;;;;0.48;100.00;96712.00;4831732;29;20058;-46
2021/12/14 07:33:20;;;;;;;16.10;4.70;;;;;;;0.22;100.00;96711.69;4835659;29;20050;-51
2021/12/14 07:35:51;;;;;;;11.13;5.30;;;;;;;0.62;100.00;96720.44;4831165;29;20053;-50
2021/12/14 07:38:27;;;;;;;26.33;4.57;;;;;;;0.07;100.00;96726.69;4839310;29;20046;-47
2021/12/14 07:41:04;;;;;;;25.17;4.63;;;;;;;0.19;100.00;96736.13;4827298;29;20048;-46
2021/12/14 07:43:44;;;;;;;10.70;4.32;;;;;;;0.02;100.00;96730.06;4833139;29;20083;-47
2021/12/14 07:46:24;;;;;;;10.23;4.45;;;;;;;0.21;100.00;96744.69;4831255;29;20069;-46
2021/12/14 07:48:56;;;;;;;11.65;4.97;;;;;;;0.23;100.00;96742.59;4831929;29;20046;-48
2021/12/14 07:51:25;;;;;;;7.28;4.07;;;;;;;0.54;100.00;96750.94;4832358;29;20058;-49
2021/12/14 07:53:58;;;;;;;16.40;4.47;;;;;;;0.30;100.00;96752.25;4847511;29;20038;-47
2021/12/14 07:56:44;;;;;;;12.93;4.45;;;;;;;0.13;100.00;96758.44;4828965;29;20054;-47
2021/12/14 07:59:23;;;;;;;9.65;3.88;;;;;;;-0.02;100.00;96750.22;4832519;29;20090;-48
2021/12/14 08:02:15;;;;;;;7.28;4.03;;;;;;;-0.07;100.00;96752.78;4830587;29;20096;-50
2021/12/14 08:05:03;;;;;;;9.63;4.60;;;;;;;0.10;100.00;96758.91;4838025;29;20054;-51
2021/12/14 08:07:32;;;;;;;25.13;4.75;;;;;;;-0.12;100.00;96766.03;4835514;29;20139;-52
2021/12/14 08:10:07;;;;;;;16.85;4.40;;;;;;;-0.15;100.00;96769.97;4837881;29;20130;-53
2021/12/14 08:12:42;;;;;;;20.58;4.45;;;;;;;-0.35;100.00;96775.78;4832593;29;20041;-51
2021/12/14 08:15:20;;;;;;;10.20;3.90;;;;;;;-0.43;100.00;96770.88;4829730;29;20069;-48
2021/12/14 08:18:06;;;;;;;8.50;5.05;;;;;;;-0.18;100.00;96767.00;4832462;29;20190;-50
2021/12/14 08:20:43;;;;;;;10.95;4.03;;;;;;;-0.40;100.00;96764.25;4832469;29;20058;-50
2021/12/14 08:23:19;;;;;;;10.38;5.68;;;;;;;0.03;100.00;96754.78;4832085;29;20048;-54
2021/12/14 08:25:47;;;;;;;9.25;5.43;;;;;;;0.52;100.00;96749.59;4826411;29;20056;-50
2021/12/14 08:28:17;;;;;;;9.45;5.40;;;;;;;0.90;100.00;96749.50;4832090;29;20056;-48
2021/12/14 08:31:05;;;;;;;10.02;5.63;;;;;;;0.98;100.00;96752.78;4831293;29;20083;-50
2021/12/14 08:33:32;;;;;;;10.73;5.18;;;;;;;0.96;100.00;96749.56;4838041;29;20073;-49
2021/12/14 08:36:03;;;;;;;9.52;5.28;;;;;;;1.17;100.00;96740.72;4838169;29;20054;-48
2021/12/14 08:38:33;;;;;;;10.30;5.80;;;;;;;1.34;100.00;96751.28;4829353;29;20054;-51
2021/12/14 08:41:13;;;;;;;8.25;5.13;;;;;;;1.17;100.00;96762.06;4831776;29;20061;-53
2021/12/14 08:43:50;;;;;;;9.60;5.47;;;;;;;1.13;100.00;96755.59;4828914;29;20057;-50
2021/12/14 08:46:27;;;;;;;10.55;5.53;;;;;;;1.24;100.00;96757.31;4828748;29;20049;-48
2021/12/14 08:49:00;;;;;;;10.30;5.30;;;;;;;1.37;100.00;96754.22;4835861;29;20531;-48
2021/12/14 08:51:47;;;;;;;9.38;5.38;;;;;;;1.50;100.00;96755.69;4843350;29;20098;-49
2021/12/14 08:54:25;;;;;;;10.15;5.47;;;;;;;1.39;100.00;96736.09;4833643;29;20060;-48
2021/12/14 08:57:04;;;;;;;9.23;5.70;;;;;;;1.54;100.00;96734.63;4843275;29;20048;-45
2021/12/14 08:59:32;;;;;;;8.07;5.40;;;;;;;1.53;100.00;96715.16;4833261;29;20400;-45
2021/12/14 09:02:02;;;;;;;11.90;5.75;;;;;;;1.83;100.00;96727.91;4837391;29;20610;-48
2021/12/14 09:04:37;;;;;;;10.40;6.25;;;;;;;1.69;100.00;96712.59;4841797;29;20121;-48
2021/12/14 09:07:13;;;;;;;8.93;5.22;;;;;;;2.35;99.63;96723.69;4837906;29;20070;-51
2021/12/14 09:09:41;;;;;;;9.65;5.20;;;;;;;2.25;100.00;96727.09;4849699;29;20121;-46
2021/12/14 09:12:20;;;;;;;9.05;5.78;;;;;;;2.05;100.00;96721.66;4834382;29;20045;-50
2021/12/14 09:14:48;;;;;;;11.27;6.50;;;;;;;2.46;99.33;96733.34;4852606;29;20042;-52
2021/12/14 09:17:18;;;;;;;11.60;6.57;;;;;;;2.13;100.00;96731.03;4835873;29;20073;-48
2021/12/14 09:19:50;;;;;;;12.63;6.10;;;;;;;2.01;100.00;96713.34;4843156;29;20056;-50
2021/12/14 09:22:29;;;;;;;12.10;6.55;;;;;;;2.06;100.00;96694.69;4837921;29;20071;-46
2021/12/14 09:24:57;;;;;;;11.15;6.78;;;;;;;2.36;100.00;96687.88;4835316;29;20069;-52
2021/12/14 09:27:29;;;;;;;11.65;5.93;;;;;;;2.53;100.00;96691.16;4845600;29;20136;-46
2021/12/14 09:29:57;;;;;;;9.70;5.43;;;;;;;2.55;100.00;96698.91;4833447;29;20507;-47
2021/12/14 09:32:27;;;;;;;9.27;5.97;;;;;;;2.75;99.07;96709.66;4832430;29;20160;-45
2021/12/14 09:34:58;;;;;;;8.50;5.32;;;;;;;2.75;98.10;96706.19;4839288;29;20142;-52
2021/12/14 09:37:27;;;;;;;8.52;5.43;;;;;;;2.67;99.95;96698.69;4838250;29;20049;-45
2021/12/14 09:40:05;;;;;;;10.82;5.75;;;;;;;2.86;99.42;96693.66;4830811;29;20061;-46
2021/12/14 09:42:34;;;;;;;9.27;6.05;;;;;;;3.02;99.35;96684.59;4838444;29;20054;-45
2021/12/14 09:45:12;;;;;;;11.02;6.78;;;;;;;3.24;98.73;96679.00;4831902;29;20133;-46
2021/12/14 09:47:40;;;;;;;8.52;4.57;;;;;;;3.12;98.70;96683.81;4836539;29;20054;-46
2021/12/14 09:50:12;;;;;;;7.75;4.80;;;;;;;3.40;98.08;96685.16;4840249;29;20064;-48
2021/12/14 09:52:41;;;;;;;8.70;4.40;;;;;;;3.51;97.26;96679.56;4841636;29;20485;-45
2021/12/14 09:55:14;;;;;;;10.70;5.07;;;;;;;3.55;97.19;96679.03;4844957;29;20050;-45
2021/12/14 09:57:53;;;;;;;9.02;5.30;;;;;;;3.66;96.55;96683.28;4835819;29;20083;-45
2021/12/14 10:00:27;;;;;;;14.97;4.87;;;;;;;3.49;99.40;96695.06;4839025;29;20073;-46
2021/12/14 10:02:58;;;;;;;26.50;5.38;;;;;;;3.09;99.59;96708.41;4834208;29;20157;-45
2021/12/14 10:05:46;;;;;;;7.35;4.57;;;;;;;3.03;100.00;96695.03;4842868;29;20212;-52
2021/12/14 10:08:18;;;;;;;9.02;5.32;;;;;;;3.22;100.00;96698.00;4841033;29;20514;-51
2021/12/14 10:10:52;;;;;;;7.97;4.45;;;;;;;3.15;100.00;96705.50;4847738;29;20456;-50
2021/12/14 10:13:19;;;;;;;7.25;4.80;;;;;;;3.17;100.00;96698.00;4833209;29;20060;-47
2021/12/14 10:15:51;;;;;;;7.78;4.97;;;;;;;3.32;99.51;96691.06;4839719;29;20053;-51
2021/12/14 10:18:30;;;;;;;8.80;4.75;;;;;;;3.86;98.43;96677.09;4845131;29;20422;-48
2021/12/14 10:21:05;;;;;;;6.75;4.72;;;;;;;4.01;95.56;96684.31;4846013;29;20133;-50
2021/12/14 10:23:34;;;;;;;9.02;5.32;;;;;;;3.40;98.90;96691.31;4834506;29;20046;-49
2021/12/14 10:26:04;;;;;;;8.27;5.00;;;;;;;3.31;100.00;96692.91;4835195;29;20121;-51
2021/12/14 10:28:34;;;;;;;11.40;5.32;;;;;;;3.78;99.01;96697.19;4839981;29;20052;-51
2021/12/14 10:31:05;;;;;;;9.13;5.95;;;;;;;3.60;98.69;96701.22;4837056;29;20076;-49
2021/12/14 10:33:33;;;;;;;8.27;5.35;;;;;;;3.97;97.90;96698.22;4833993;29;20428;-50
2021/12/14 10:36:15;;;;;;;10.25;5.97;;;;;;;3.74;98.26;96696.13;4840665;29;20120;-49
2021/12/14 10:39:04;;;;;;;7.75;4.82;;;;;;;3.40;99.78;96690.53;4849597;29;20163;-49
2021/12/14 10:44:16;;;;;;;9.57;5.10;;;;;;;3.84;98.84;96680.06;4836416;29;20452;-49
2021/12/14 10:46:48;;;;;;;8.32;5.22;;;;;;;3.67;98.07;96680.34;4834183;29;20058;-49
2021/12/14 10:49:17;;;;;;;8.25;5.07;;;;;;;3.64;99.20;96690.78;4832397;29;20049;-48
2021/12/14 10:51:48;;;;;;;8.32;5.07;;;;;;;4.01;97.40;96679.75;4834492;29;20042;-46
2021/12/14 10:54:19;;;;;;;9.93;6.00;;;;;;;4.19;97.17;96686.38;4836129;29;20500;-47
2021/12/14 10:56:54;;;;;;;8.75;5.18;;;;;;;3.65;96.67;96692.41;4832341;29;20050;-46
2021/12/14 10:59:27;;;;;;;10.10;5.97;;;;;;;3.69;98.73;96696.13;4834086;29;20124;-46
2021/12/14 11:01:56;;;;;;;10.35;5.68;;;;;;;3.87;99.20;96702.81;4838105;29;20455;-49
2021/12/14 11:04:37;;;;;;;9.32;5.55;;;;;;;4.13;96.73;96703.56;4836960;29;20057;-52
2021/12/14 11:07:19;;;;;;;11.77;5.50;;;;;;;4.66;95.82;96706.59;4834240;29;20070;-50
2021/12/14 11:09:49;;;;;;;7.28;5.20;;;;;;;4.75;92.59;96698.78;4830334;29;20074;-51
2021/12/14 11:12:29;;;;;;;5.53;4.10;;;;;;;4.22;94.62;96710.78;4831471;29;20193;-50
2021/12/14 11:15:12;;;;;;;7.18;4.45;;;;;;;4.37;93.83;96701.06;4832463;29;20137;-49
2021/12/14 11:20:31;;;;;;;5.88;3.78;;;;;;;4.22;93.75;96715.31;4836270;29;20077;-51
2021/12/14 11:22:58;;;;;;;5.68;3.75;;;;;;;4.05;95.06;96715.63;4835729;29;20113;-49
2021/12/14 11:25:40;;;;;;;5.63;3.67;;;;;;;4.06;96.01;96700.34;4832428;29;20118;-52
2021/12/14 11:28:10;;;;;;;;;;;;;;;4.98;94.13;96697.31;4832523;29;20054;-52
2021/12/14 11:30:45;;;;;;;7.05;4.47;;;;;;;4.89;92.79;96703.25;4839561;29;19928;-50
2021/12/14 11:33:27;;;;;;;5.82;4.15;;;;;;;4.75;92.64;96699.59;4832814;29;20129;-51
2021/12/14 11:36:32;;;;;;;7.82;4.57;;;;;;;4.43;94.40;96695.41;4852475;29;20493;-51
2021/12/14 11:39:23;;;;;;;6.80;4.03;;;;;;;4.53;94.67;96696.47;4825545;29;20087;-51
2021/12/14 11:41:58;;;;;;;6.57;4.40;;;;;;;4.67;95.02;96692.09;4841871;29;20076;-49
2021/12/14 11:44:27;;;;;;;7.93;4.25;;;;;;;4.80;92.06;96696.84;4834241;29;20497;-49
2021/12/14 11:46:55;;;;;;;5.13;3.85;;;;;;;4.33;93.95;96697.34;4832042;29;20419;-49
2021/12/14 11:49:37;;;;;;;6.90;4.35;;;;;;;4.32;94.36;96703.75;4841281;29;20052;-48
2021/12/14 11:52:05;;;;;;;7.38;4.68;;;;;;;4.51;94.96;96706.66;4833122;29;20436;-47
2021/12/14 11:54:41;;;;;;;7.13;5.13;;;;;;;4.50;94.81;96702.38;4830304;29;20062;-48
2021/12/14 11:57:09;;;;;;;7.53;4.32;;;;;;;4.17;94.17;96694.69;4837202;29;20056;-48
2021/12/14 11:59:37;;;;;;;6.20;4.97;;;;;;;4.41;94.08;96694.88;4841035;29;20044;-50
2021/12/14 12:02:05;;;;;;;6.28;4.47;;;;;;;4.36;93.75;96694.13;4832529;29;20450;-49
2021/12/14 12:04:35;;;;;;;6.95;5.03;;;;;;;4.65;92.59;96702.31;4831511;29;20048;-51
2021/12/14 12:09:56;;;;;;;7.95;5.60;;;;;;;4.24;93.21;96698.97;4841567;29;20409;-49
2021/12/14 12:12:31;;;;;;;7.03;5.47;;;;;;;4.38;92.82;96700.00;4833306;29;20141;-48
2021/12/14 12:15:00;;;;;;;11.35;6.15;;;;;;;4.21;93.78;96698.44;4835856;29;20041;-48
2021/12/14 12:17:36;;;;;;;8.75;5.90;;;;;;;4.64;92.97;96700.69;4838670;29;20049;-49
2021/12/14 12:20:18;;;;;;;7.70;5.80;;;;;;;4.77;92.19;96692.03;4836246;29;20046;-50
2021/12/14 12:22:48;;;;;;;7.90;6.10;;;;;;;4.58;91.96;96704.47;4833689;29;20058;-49
2021/12/14 12:25:38;;;;;;;8.50;6.25;;;;;;;4.62;93.09;96705.53;4832233;29;20432;-48
2021/12/14 12:28:07;;;;;;;8.77;6.22;;;;;;;4.93;91.63;96701.59;4842232;29;20095;-49
2021/12/14 12:30:49;;;;;;;9.00;6.55;;;;;;;4.74;92.02;96713.25;4836797;29;20061;-49
2021/12/14 12:33:30;;;;;;;8.82;6.55;;;;;;;4.52;94.08;96710.91;4832855;29;20049;-50
2021/12/14 12:36:14;;;;;;;8.60;5.88;;;;;;;4.46;92.91;96712.84;4834290;29;20060;-47